VAF276 FMCH-FMNA
Flight info
| Callsign | VAF276 |
|---|---|
| Flight time | 1h 1m |
| Altitude | 37000 |
| Route | HAI UN305 VOHID DCT BIRAL UL433 DO |
| Aircraft | A320/M-SDE3FGHIRWY/LB1 |
Departure
| Time | 2026-05-05 14:38 |
|---|---|
| Airport | Prince Said Ibrahim International Airport (FMCH) |
Arrival
| Time | 2026-05-05 15:40 |
|---|---|
| Airport | Arrachart Airport (FMNA) |
| Time | Latitude | Longitude | Altitude | Speed | Heading |
|---|---|---|---|---|---|
| 2026-05-05 14:18 | -11.53697 | 43.27396 | 83 ft | 0 kts | 179° |
| 2026-05-05 14:34 | -11.53698 | 43.27396 | 80 ft | 3 kts | 179° |
| 2026-05-05 14:35 | -11.53699 | 43.27396 | 80 ft | 0 kts | 179° |
| 2026-05-05 14:35 | -11.53720 | 43.27368 | 84 ft | 9 kts | 285° |
| 2026-05-05 14:35 | -11.53681 | 43.27302 | 82 ft | 12 kts | 292° |
| 2026-05-05 14:35 | -11.53665 | 43.27206 | 70 ft | 16 kts | 275° |
| 2026-05-05 14:36 | -11.53549 | 43.27157 | 80 ft | 29 kts | 7° |
| 2026-05-05 14:36 | -11.53289 | 43.27197 | 88 ft | 42 kts | 11° |
| 2026-05-05 14:36 | -11.52993 | 43.27258 | 86 ft | 45 kts | 12° |
| 2026-05-05 14:36 | -11.52674 | 43.27317 | 85 ft | 48 kts | 10° |
| 2026-05-05 14:37 | -11.52317 | 43.27383 | 88 ft | 48 kts | 11° |
| 2026-05-05 14:37 | -11.52109 | 43.27460 | 89 ft | 22 kts | 359° |
| 2026-05-05 14:37 | -11.52133 | 43.27405 | 87 ft | 7 kts | 194° |
| 2026-05-05 14:37 | -11.52136 | 43.27404 | 87 ft | 0 kts | 193° |
| 2026-05-05 14:38 | -11.52365 | 43.27363 | 85 ft | 82 kts | 189° |
| 2026-05-05 14:38 | -11.53215 | 43.27212 | 106 ft | 159 kts | 191° |
| 2026-05-05 14:38 | -11.54236 | 43.26985 | 1150 ft | 148 kts | 193° |
| 2026-05-05 14:38 | -11.55294 | 43.26751 | 1906 ft | 165 kts | 190° |
| 2026-05-05 14:39 | -11.56487 | 43.26471 | 2517 ft | 186 kts | 191° |
| 2026-05-05 14:39 | -11.57830 | 43.26147 | 2895 ft | 211 kts | 192° |
| 2026-05-05 14:39 | -11.59370 | 43.25776 | 3001 ft | 247 kts | 192° |
| 2026-05-05 14:39 | -11.61082 | 43.25370 | 3106 ft | 251 kts | 192° |
| 2026-05-05 14:40 | -11.62797 | 43.24954 | 3720 ft | 256 kts | 192° |
| 2026-05-05 14:40 | -11.64554 | 43.24531 | 4339 ft | 260 kts | 191° |
| 2026-05-05 14:40 | -11.66324 | 43.24107 | 4945 ft | 263 kts | 192° |
| 2026-05-05 14:40 | -11.68125 | 43.23683 | 5553 ft | 267 kts | 192° |
| 2026-05-05 14:41 | -11.69954 | 43.23282 | 6168 ft | 270 kts | 185° |
| 2026-05-05 14:41 | -11.71810 | 43.23447 | 6756 ft | 270 kts | 161° |
| 2026-05-05 14:41 | -11.73436 | 43.24394 | 7350 ft | 272 kts | 136° |
| 2026-05-05 14:41 | -11.74518 | 43.25964 | 7951 ft | 274 kts | 111° |
| 2026-05-05 14:42 | -11.74843 | 43.27883 | 8557 ft | 278 kts | 86° |
| 2026-05-05 14:42 | -11.74324 | 43.29782 | 9189 ft | 282 kts | 61° |
| 2026-05-05 14:42 | -11.73163 | 43.31398 | 9812 ft | 283 kts | 51° |
| 2026-05-05 14:42 | -11.71922 | 43.32971 | 10387 ft | 286 kts | 51° |
| 2026-05-05 14:43 | -11.70656 | 43.34567 | 10986 ft | 295 kts | 52° |
| 2026-05-05 14:43 | -11.69316 | 43.36259 | 11203 ft | 318 kts | 52° |
| 2026-05-05 14:43 | -11.67886 | 43.38068 | 11574 ft | 333 kts | 52° |
| 2026-05-05 14:43 | -11.66420 | 43.39926 | 12208 ft | 338 kts | 52° |
| 2026-05-05 14:44 | -11.64938 | 43.41802 | 12902 ft | 341 kts | 52° |
| 2026-05-05 14:44 | -11.63446 | 43.43696 | 13599 ft | 344 kts | 52° |
| 2026-05-05 14:44 | -11.61943 | 43.45608 | 14208 ft | 347 kts | 52° |
| 2026-05-05 14:44 | -11.60429 | 43.47534 | 14797 ft | 350 kts | 52° |
| 2026-05-05 14:45 | -11.58898 | 43.49477 | 15389 ft | 353 kts | 52° |
| 2026-05-05 14:45 | -11.57350 | 43.51434 | 15965 ft | 356 kts | 52° |
| 2026-05-05 14:45 | -11.55786 | 43.53410 | 16539 ft | 360 kts | 52° |
| 2026-05-05 14:45 | -11.54209 | 43.55402 | 17115 ft | 363 kts | 52° |
| 2026-05-05 14:46 | -11.52618 | 43.57417 | 17695 ft | 366 kts | 52° |
| 2026-05-05 14:46 | -11.51017 | 43.59450 | 18263 ft | 370 kts | 52° |
| 2026-05-05 14:46 | -11.49378 | 43.61535 | 18431 ft | 384 kts | 52° |
| 2026-05-05 14:46 | -11.47671 | 43.63709 | 18547 ft | 400 kts | 52° |
| 2026-05-05 14:47 | -11.45898 | 43.65960 | 18663 ft | 414 kts | 52° |
| 2026-05-05 14:47 | -11.44071 | 43.68275 | 18926 ft | 422 kts | 52° |
| 2026-05-05 14:47 | -11.42219 | 43.70620 | 19313 ft | 426 kts | 52° |
| 2026-05-05 14:47 | -11.40374 | 43.72949 | 19713 ft | 429 kts | 52° |
| 2026-05-05 14:48 | -11.38492 | 43.75323 | 20119 ft | 432 kts | 52° |
| 2026-05-05 14:48 | -11.36599 | 43.77712 | 20514 ft | 435 kts | 52° |
| 2026-05-05 14:48 | -11.34691 | 43.80122 | 20902 ft | 438 kts | 52° |
| 2026-05-05 14:48 | -11.32771 | 43.82548 | 21279 ft | 440 kts | 52° |
| 2026-05-05 14:49 | -11.30847 | 43.84983 | 21644 ft | 443 kts | 52° |
| 2026-05-05 14:49 | -11.28910 | 43.87434 | 21994 ft | 445 kts | 52° |
| 2026-05-05 14:49 | -11.26960 | 43.89899 | 22330 ft | 448 kts | 52° |
| 2026-05-05 14:49 | -11.24999 | 43.92373 | 22658 ft | 450 kts | 52° |
| 2026-05-05 14:50 | -11.23021 | 43.94866 | 22976 ft | 453 kts | 52° |
| 2026-05-05 14:50 | -11.21034 | 43.97369 | 23288 ft | 455 kts | 52° |
| 2026-05-05 14:50 | -11.19040 | 43.99884 | 23574 ft | 457 kts | 52° |
| 2026-05-05 14:50 | -11.17039 | 44.02415 | 23817 ft | 459 kts | 52° |
| 2026-05-05 14:51 | -11.15030 | 44.04957 | 24048 ft | 462 kts | 52° |
| 2026-05-05 14:51 | -11.13009 | 44.07511 | 24281 ft | 464 kts | 52° |
| 2026-05-05 14:51 | -11.10978 | 44.10073 | 24516 ft | 465 kts | 51° |
| 2026-05-05 14:51 | -11.08942 | 44.12641 | 24743 ft | 467 kts | 51° |
| 2026-05-05 14:52 | -11.06922 | 44.15188 | 24979 ft | 469 kts | 52° |
| 2026-05-05 14:52 | -11.04869 | 44.17778 | 25189 ft | 471 kts | 51° |
| 2026-05-05 14:52 | -11.02809 | 44.20377 | 25417 ft | 473 kts | 51° |
| 2026-05-05 14:52 | -11.00735 | 44.22989 | 25630 ft | 475 kts | 51° |
| 2026-05-05 14:53 | -10.98650 | 44.25606 | 25844 ft | 477 kts | 51° |
| 2026-05-05 14:53 | -10.96558 | 44.28237 | 26057 ft | 479 kts | 52° |
| 2026-05-05 14:53 | -10.94735 | 44.31074 | 26250 ft | 480 kts | 63° |
| 2026-05-05 14:53 | -10.93522 | 44.34236 | 26451 ft | 481 kts | 75° |
| 2026-05-05 14:54 | -10.92980 | 44.37598 | 26631 ft | 483 kts | 87° |
| 2026-05-05 14:54 | -10.92967 | 44.41016 | 26809 ft | 484 kts | 91° |
| 2026-05-05 14:54 | -10.92990 | 44.44451 | 26968 ft | 486 kts | 91° |
| 2026-05-05 14:54 | -10.93010 | 44.47895 | 27132 ft | 488 kts | 90° |
| 2026-05-05 14:55 | -10.93025 | 44.51352 | 27282 ft | 489 kts | 90° |
| 2026-05-05 14:55 | -10.93037 | 44.54821 | 27419 ft | 491 kts | 90° |
| 2026-05-05 14:55 | -10.93046 | 44.58296 | 27551 ft | 492 kts | 90° |
| 2026-05-05 14:55 | -10.93054 | 44.61786 | 27679 ft | 493 kts | 90° |
| 2026-05-05 14:56 | -10.93061 | 44.65279 | 27817 ft | 494 kts | 91° |
| 2026-05-05 14:56 | -10.93071 | 44.68774 | 27993 ft | 494 kts | 91° |
| 2026-05-05 14:56 | -10.93085 | 44.72269 | 28166 ft | 494 kts | 91° |
| 2026-05-05 14:56 | -10.93102 | 44.75767 | 28349 ft | 494 kts | 91° |
| 2026-05-05 14:57 | -10.93112 | 44.79261 | 28535 ft | 494 kts | 91° |
| 2026-05-05 14:57 | -10.93118 | 44.82762 | 28664 ft | 496 kts | 90° |
| 2026-05-05 14:57 | -10.93122 | 44.86271 | 28793 ft | 496 kts | 90° |
| 2026-05-05 14:57 | -10.93125 | 44.89787 | 28921 ft | 497 kts | 90° |
| 2026-05-05 14:58 | -10.93130 | 44.93307 | 29053 ft | 498 kts | 91° |
| 2026-05-05 14:58 | -10.93139 | 44.96830 | 29187 ft | 498 kts | 91° |
| 2026-05-05 14:58 | -10.93150 | 45.00359 | 29334 ft | 498 kts | 91° |
| 2026-05-05 14:58 | -10.93162 | 45.03886 | 29476 ft | 499 kts | 91° |
| 2026-05-05 14:59 | -10.93172 | 45.07416 | 29622 ft | 499 kts | 90° |
| 2026-05-05 14:59 | -10.93181 | 45.10951 | 29794 ft | 499 kts | 91° |
| 2026-05-05 14:59 | -10.93189 | 45.14483 | 29947 ft | 500 kts | 91° |
| 2026-05-05 14:59 | -10.93195 | 45.18014 | 30111 ft | 499 kts | 91° |
| 2026-05-05 15:00 | -10.93199 | 45.21550 | 30250 ft | 499 kts | 90° |
| 2026-05-05 15:00 | -10.93200 | 45.23884 | 30354 ft | 499 kts | 91° |
| 2026-05-05 15:00 | -10.93199 | 45.28600 | 30565 ft | 498 kts | 91° |
| 2026-05-05 15:00 | -10.93197 | 45.32127 | 30727 ft | 498 kts | 90° |
| 2026-05-05 15:01 | -10.93197 | 45.35644 | 30903 ft | 497 kts | 91° |
| 2026-05-05 15:01 | -10.93201 | 45.39163 | 31068 ft | 497 kts | 90° |
| 2026-05-05 15:01 | -10.93206 | 45.42672 | 31261 ft | 496 kts | 90° |
| 2026-05-05 15:01 | -10.93211 | 45.46180 | 31425 ft | 496 kts | 90° |
| 2026-05-05 15:02 | -10.93215 | 45.49644 | 31617 ft | 495 kts | 91° |
| 2026-05-05 15:02 | -10.93217 | 45.53147 | 31804 ft | 495 kts | 90° |
| 2026-05-05 15:02 | -10.93218 | 45.56689 | 32007 ft | 494 kts | 90° |
| 2026-05-05 15:02 | -10.93218 | 45.60183 | 32216 ft | 494 kts | 90° |
| 2026-05-05 15:03 | -10.93217 | 45.63633 | 32406 ft | 494 kts | 90° |
| 2026-05-05 15:03 | -10.93217 | 45.67166 | 32629 ft | 493 kts | 90° |
| 2026-05-05 15:03 | -10.93216 | 45.70657 | 32822 ft | 493 kts | 90° |
| 2026-05-05 15:03 | -10.93213 | 45.74145 | 33054 ft | 492 kts | 90° |
| 2026-05-05 15:04 | -10.93210 | 45.77623 | 33268 ft | 492 kts | 90° |
| 2026-05-05 15:04 | -10.93206 | 45.81106 | 33492 ft | 492 kts | 90° |
| 2026-05-05 15:04 | -10.93205 | 45.84585 | 33730 ft | 492 kts | 90° |
| 2026-05-05 15:04 | -10.93200 | 45.88066 | 33951 ft | 492 kts | 90° |
| 2026-05-05 15:05 | -10.93192 | 45.95011 | 34397 ft | 491 kts | 90° |
| 2026-05-05 15:05 | -10.93195 | 45.98435 | 34644 ft | 490 kts | 90° |
| 2026-05-05 15:05 | -10.93195 | 46.01947 | 34863 ft | 490 kts | 90° |
| 2026-05-05 15:06 | -10.93191 | 46.05413 | 35118 ft | 489 kts | 90° |
| 2026-05-05 15:06 | -10.93187 | 46.08866 | 35371 ft | 488 kts | 90° |
| 2026-05-05 15:06 | -10.93178 | 46.12279 | 35590 ft | 488 kts | 90° |
| 2026-05-05 15:06 | -10.93166 | 46.15724 | 35857 ft | 486 kts | 89° |
| 2026-05-05 15:07 | -10.93155 | 46.19166 | 36066 ft | 487 kts | 89° |
| 2026-05-05 15:07 | -10.93147 | 46.22606 | 36316 ft | 486 kts | 90° |
| 2026-05-05 15:07 | -10.93142 | 46.26043 | 36526 ft | 486 kts | 90° |
| 2026-05-05 15:07 | -10.93139 | 46.29481 | 36758 ft | 485 kts | 89° |
| 2026-05-05 15:08 | -10.93134 | 46.32911 | 36925 ft | 485 kts | 89° |
| 2026-05-05 15:08 | -10.93119 | 46.39765 | 36961 ft | 484 kts | 89° |
| 2026-05-05 15:09 | -10.93099 | 46.46623 | 36959 ft | 483 kts | 89° |
| 2026-05-05 15:09 | -10.93075 | 46.53459 | 36961 ft | 482 kts | 89° |
| 2026-05-05 15:10 | -10.93054 | 46.60288 | 36961 ft | 483 kts | 89° |
| 2026-05-05 15:10 | -10.93035 | 46.67110 | 36952 ft | 482 kts | 89° |
| 2026-05-05 15:11 | -10.93011 | 46.73935 | 36956 ft | 483 kts | 89° |
| 2026-05-05 15:11 | -10.92988 | 46.80768 | 36963 ft | 483 kts | 89° |
| 2026-05-05 15:12 | -10.92958 | 46.87609 | 36969 ft | 484 kts | 89° |
| 2026-05-05 15:12 | -10.92922 | 46.94457 | 36974 ft | 484 kts | 89° |
| 2026-05-05 15:13 | -10.92888 | 47.01308 | 36977 ft | 485 kts | 89° |
| 2026-05-05 15:13 | -10.92856 | 47.08171 | 36974 ft | 485 kts | 89° |
| 2026-05-05 15:14 | -10.92829 | 47.15032 | 36977 ft | 485 kts | 89° |
| 2026-05-05 15:14 | -10.92793 | 47.21898 | 36977 ft | 486 kts | 89° |
| 2026-05-05 15:15 | -10.92758 | 47.28770 | 36977 ft | 486 kts | 89° |
| 2026-05-05 15:15 | -10.92726 | 47.35652 | 36981 ft | 486 kts | 89° |
| 2026-05-05 15:16 | -10.92686 | 47.42534 | 36983 ft | 487 kts | 89° |
| 2026-05-05 15:16 | -10.92636 | 47.49386 | 36982 ft | 487 kts | 89° |
| 2026-05-05 15:17 | -10.93380 | 47.56206 | 36984 ft | 487 kts | 107° |
| 2026-05-05 15:17 | -10.94660 | 47.59394 | 36987 ft | 486 kts | 118° |
| 2026-05-05 15:17 | -10.96481 | 47.62282 | 36987 ft | 485 kts | 129° |
| 2026-05-05 15:18 | -11.00129 | 47.66679 | 36977 ft | 485 kts | 131° |
| 2026-05-05 15:18 | -11.04479 | 47.71879 | 36970 ft | 486 kts | 131° |
| 2026-05-05 15:19 | -11.08860 | 47.77122 | 36966 ft | 486 kts | 130° |
| 2026-05-05 15:19 | -11.13234 | 47.82368 | 36977 ft | 486 kts | 131° |
| 2026-05-05 15:20 | -11.17607 | 47.87620 | 36983 ft | 486 kts | 130° |
| 2026-05-05 15:20 | -11.21980 | 47.92858 | 36980 ft | 486 kts | 131° |
| 2026-05-05 15:21 | -11.26355 | 47.98110 | 36972 ft | 486 kts | 130° |
| 2026-05-05 15:21 | -11.30734 | 48.03372 | 36962 ft | 487 kts | 131° |
| 2026-05-05 15:22 | -11.35125 | 48.08638 | 36970 ft | 487 kts | 131° |
| 2026-05-05 15:22 | -11.37313 | 48.11263 | 36838 ft | 484 kts | 131° |
| 2026-05-05 15:22 | -11.39485 | 48.13873 | 36083 ft | 483 kts | 131° |
| 2026-05-05 15:22 | -11.41651 | 48.16482 | 35485 ft | 479 kts | 131° |
| 2026-05-05 15:23 | -11.43785 | 48.19057 | 35027 ft | 473 kts | 131° |
| 2026-05-05 15:23 | -11.45905 | 48.21611 | 34484 ft | 470 kts | 131° |
| 2026-05-05 15:23 | -11.48011 | 48.24149 | 33949 ft | 468 kts | 132° |
| 2026-05-05 15:23 | -11.50110 | 48.26675 | 33358 ft | 465 kts | 131° |
| 2026-05-05 15:24 | -11.52189 | 48.29173 | 32842 ft | 460 kts | 131° |
| 2026-05-05 15:24 | -11.54253 | 48.31656 | 32297 ft | 457 kts | 133° |
| 2026-05-05 15:24 | -11.56302 | 48.34124 | 31762 ft | 454 kts | 133° |
| 2026-05-05 15:24 | -11.58336 | 48.36572 | 31227 ft | 451 kts | 131° |
| 2026-05-05 15:25 | -11.60350 | 48.38999 | 30705 ft | 447 kts | 133° |
| 2026-05-05 15:25 | -11.62348 | 48.41405 | 30190 ft | 442 kts | 132° |
| 2026-05-05 15:25 | -11.64321 | 48.43782 | 29619 ft | 432 kts | 131° |
| 2026-05-05 15:25 | -11.66217 | 48.46067 | 29154 ft | 414 kts | 131° |
| 2026-05-05 15:26 | -11.68041 | 48.48267 | 28698 ft | 398 kts | 132° |
| 2026-05-05 15:26 | -11.69774 | 48.50361 | 28275 ft | 385 kts | 132° |
| 2026-05-05 15:26 | -11.71473 | 48.52416 | 27852 ft | 372 kts | 132° |
| 2026-05-05 15:26 | -11.73125 | 48.54412 | 27475 ft | 366 kts | 131° |
| 2026-05-05 15:27 | -11.74766 | 48.56392 | 27089 ft | 364 kts | 132° |
| 2026-05-05 15:27 | -11.76401 | 48.58360 | 26706 ft | 362 kts | 132° |
| 2026-05-05 15:27 | -11.78024 | 48.60317 | 26325 ft | 360 kts | 132° |
| 2026-05-05 15:27 | -11.79636 | 48.62266 | 25943 ft | 358 kts | 131° |
| 2026-05-05 15:28 | -11.81244 | 48.64207 | 25545 ft | 357 kts | 131° |
| 2026-05-05 15:28 | -11.82844 | 48.66139 | 25154 ft | 356 kts | 131° |
| 2026-05-05 15:28 | -11.84436 | 48.68065 | 24747 ft | 355 kts | 131° |
| 2026-05-05 15:28 | -11.86026 | 48.69989 | 24341 ft | 354 kts | 130° |
| 2026-05-05 15:29 | -11.87616 | 48.71913 | 23933 ft | 354 kts | 130° |
| 2026-05-05 15:29 | -11.89206 | 48.73834 | 23497 ft | 355 kts | 131° |
| 2026-05-05 15:29 | -11.90799 | 48.75755 | 23020 ft | 353 kts | 130° |
| 2026-05-05 15:29 | -11.92381 | 48.77667 | 22583 ft | 351 kts | 130° |
| 2026-05-05 15:30 | -11.93954 | 48.79568 | 22148 ft | 349 kts | 130° |
| 2026-05-05 15:30 | -11.95518 | 48.81461 | 21705 ft | 348 kts | 130° |
| 2026-05-05 15:30 | -11.97083 | 48.83358 | 21234 ft | 348 kts | 129° |
| 2026-05-05 15:30 | -11.98419 | 48.85423 | 20194 ft | 353 kts | 118° |
| 2026-05-05 15:31 | -11.99598 | 48.87665 | 18885 ft | 364 kts | 117° |
| 2026-05-05 15:31 | -12.00789 | 48.89979 | 17428 ft | 373 kts | 117° |
| 2026-05-05 15:31 | -12.02003 | 48.92357 | 15835 ft | 382 kts | 117° |
| 2026-05-05 15:31 | -12.03241 | 48.94786 | 14248 ft | 389 kts | 117° |
| 2026-05-05 15:32 | -12.04500 | 48.97254 | 12723 ft | 392 kts | 117° |
| 2026-05-05 15:32 | -12.05734 | 48.99658 | 12031 ft | 370 kts | 117° |
| 2026-05-05 15:32 | -12.06896 | 49.01916 | 11434 ft | 349 kts | 117° |
| 2026-05-05 15:32 | -12.07999 | 49.04059 | 10851 ft | 333 kts | 117° |
| 2026-05-05 15:33 | -12.09053 | 49.06101 | 10431 ft | 316 kts | 118° |
| 2026-05-05 15:33 | -12.10035 | 49.08005 | 10368 ft | 289 kts | 117° |
| 2026-05-05 15:33 | -12.10938 | 49.09757 | 10196 ft | 271 kts | 117° |
| 2026-05-05 15:33 | -12.11800 | 49.11431 | 9789 ft | 263 kts | 117° |
| 2026-05-05 15:34 | -12.12783 | 49.12977 | 9275 ft | 258 kts | 136° |
| 2026-05-05 15:34 | -12.14322 | 49.13860 | 8722 ft | 257 kts | 167° |
| 2026-05-05 15:34 | -12.16086 | 49.13776 | 8237 ft | 256 kts | 197° |
| 2026-05-05 15:34 | -12.17629 | 49.12868 | 7733 ft | 256 kts | 212° |
| 2026-05-05 15:35 | -12.19093 | 49.11847 | 7230 ft | 252 kts | 211° |
| 2026-05-05 15:35 | -12.20627 | 49.11062 | 6735 ft | 242 kts | 189° |
| 2026-05-05 15:35 | -12.22267 | 49.11124 | 6193 ft | 235 kts | 160° |
| 2026-05-05 15:35 | -12.23631 | 49.11999 | 5605 ft | 234 kts | 133° |
| 2026-05-05 15:36 | -12.24575 | 49.13344 | 5005 ft | 228 kts | 124° |
| 2026-05-05 15:36 | -12.25435 | 49.14659 | 4396 ft | 217 kts | 125° |
| 2026-05-05 15:36 | -12.26254 | 49.15914 | 3787 ft | 207 kts | 124° |
| 2026-05-05 15:36 | -12.27013 | 49.17078 | 3598 ft | 189 kts | 124° |
| 2026-05-05 15:37 | -12.27734 | 49.18178 | 3437 ft | 183 kts | 124° |
| 2026-05-05 15:37 | -12.28436 | 49.19250 | 3099 ft | 180 kts | 125° |
| 2026-05-05 15:37 | -12.29129 | 49.20309 | 2662 ft | 178 kts | 125° |
| 2026-05-05 15:37 | -12.29804 | 49.21340 | 2558 ft | 172 kts | 125° |
| 2026-05-05 15:38 | -12.30468 | 49.22350 | 2261 ft | 169 kts | 125° |
| 2026-05-05 15:38 | -12.31091 | 49.23299 | 1963 ft | 153 kts | 124° |
| 2026-05-05 15:38 | -12.31672 | 49.24182 | 1651 ft | 146 kts | 125° |
| 2026-05-05 15:38 | -12.32232 | 49.25034 | 1486 ft | 144 kts | 126° |
| 2026-05-05 15:39 | -12.32805 | 49.25906 | 1129 ft | 148 kts | 124° |
| 2026-05-05 15:39 | -12.33379 | 49.26777 | 826 ft | 144 kts | 122° |
| 2026-05-05 15:39 | -12.33912 | 49.27585 | 642 ft | 132 kts | 122° |
| 2026-05-05 15:39 | -12.34400 | 49.28354 | 409 ft | 124 kts | 124° |
| 2026-05-05 15:40 | -12.34824 | 49.28989 | 360 ft | 74 kts | 124° |
| 2026-05-05 15:40 | -12.34914 | 49.29128 | 372 ft | 17 kts | 123° |
| 2026-05-05 15:40 | -12.35051 | 49.29333 | 375 ft | 37 kts | 125° |
| 2026-05-05 15:40 | -12.35057 | 49.29460 | 380 ft | 16 kts | 17° |
| 2026-05-05 15:41 | -12.34997 | 49.29478 | 380 ft | 0 kts | 15° |